sensor_id;sensor_type;location;lat;lon;timestamp;pressure;altitude;pressure_sealevel;temperature;humidity
45872;BME280;32333;55.844;-3.210;2023-07-29T00:01:49;97911.07;;;14.44;100.00
45872;BME280;32333;55.844;-3.210;2023-07-29T00:04:17;97912.51;;;14.32;100.00
45872;BME280;32333;55.844;-3.210;2023-07-29T00:06:44;97910.45;;;14.79;100.00
45872;BME280;32333;55.844;-3.210;2023-07-29T00:09:11;97907.59;;;13.97;100.00
45872;BME280;32333;55.844;-3.210;2023-07-29T00:11:39;97901.06;;;14.66;100.00
45872;BME280;32333;55.844;-3.210;2023-07-29T00:14:35;97901.75;;;14.40;100.00
45872;BME280;32333;55.844;-3.210;2023-07-29T00:17:03;97904.16;;;13.94;100.00
45872;BME280;32333;55.844;-3.210;2023-07-29T00:19:31;97901.45;;;13.91;100.00
45872;BME280;32333;55.844;-3.210;2023-07-29T00:21:59;97901.14;;;14.47;100.00
45872;BME280;32333;55.844;-3.210;2023-07-29T00:24:26;97904.32;;;14.15;100.00
45872;BME280;32333;55.844;-3.210;2023-07-29T00:26:53;97897.76;;;14.85;100.00
45872;BME280;32333;55.844;-3.210;2023-07-29T00:29:21;97891.04;;;13.86;100.00
45872;BME280;32333;55.844;-3.210;2023-07-29T00:31:48;97881.88;;;14.78;100.00
45872;BME280;32333;55.844;-3.210;2023-07-29T00:34:16;97880.16;;;14.35;100.00
45872;BME280;32333;55.844;-3.210;2023-07-29T00:36:43;97882.21;;;14.05;100.00
45872;BME280;32333;55.844;-3.210;2023-07-29T00:39:10;97877.09;;;15.50;100.00
45872;BME280;32333;55.844;-3.210;2023-07-29T00:41:39;97878.36;;;14.45;100.00
45872;BME280;32333;55.844;-3.210;2023-07-29T00:44:35;97875.64;;;15.18;100.00
45872;BME280;32333;55.844;-3.210;2023-07-29T00:47:03;97875.91;;;15.11;100.00
45872;BME280;32333;55.844;-3.210;2023-07-29T00:49:33;97864.85;;;14.50;100.00
45872;BME280;32333;55.844;-3.210;2023-07-29T00:52:01;97856.08;;;14.38;100.00
45872;BME280;32333;55.844;-3.210;2023-07-29T00:54:28;97851.07;;;15.21;100.00
45872;BME280;32333;55.844;-3.210;2023-07-29T00:56:56;97850.50;;;14.60;100.00
45872;BME280;32333;55.844;-3.210;2023-07-29T00:59:24;97844.88;;;14.38;100.00
45872;BME280;32333;55.844;-3.210;2023-07-29T01:01:56;97840.23;;;13.80;100.00
45872;BME280;32333;55.844;-3.210;2023-07-29T01:04:23;97838.88;;;14.34;100.00
45872;BME280;32333;55.844;-3.210;2023-07-29T01:06:58;97833.35;;;14.53;100.00
45872;BME280;32333;55.844;-3.210;2023-07-29T01:09:33;97837.44;;;13.61;100.00
45872;BME280;32333;55.844;-3.210;2023-07-29T01:14:40;97837.58;;;13.46;100.00
45872;BME280;32333;55.844;-3.210;2023-07-29T01:17:14;97840.50;;;13.10;100.00
45872;BME280;32333;55.844;-3.210;2023-07-29T01:19:59;97831.33;;;13.67;100.00
45872;BME280;32333;55.844;-3.210;2023-07-29T01:22:28;97832.54;;;13.20;100.00
45872;BME280;32333;55.844;-3.210;2023-07-29T01:24:56;97828.52;;;13.59;100.00
45872;BME280;32333;55.844;-3.210;2023-07-29T01:27:24;97824.75;;;14.35;100.00
45872;BME280;32333;55.844;-3.210;2023-07-29T01:29:52;97829.01;;;14.12;100.00
45872;BME280;32333;55.844;-3.210;2023-07-29T01:32:24;97821.42;;;13.51;100.00
45872;BME280;32333;55.844;-3.210;2023-07-29T01:34:59;97816.80;;;13.67;100.00
45872;BME280;32333;55.844;-3.210;2023-07-29T01:37:30;97819.46;;;14.02;100.00
45872;BME280;32333;55.844;-3.210;2023-07-29T01:40:00;97819.71;;;13.47;100.00
45872;BME280;32333;55.844;-3.210;2023-07-29T01:44:36;97816.55;;;13.90;100.00
45872;BME280;32333;55.844;-3.210;2023-07-29T01:47:03;97814.15;;;14.29;100.00
45872;BME280;32333;55.844;-3.210;2023-07-29T01:49:31;97810.00;;;14.57;100.00
45872;BME280;32333;55.844;-3.210;2023-07-29T01:51:59;97811.00;;;14.14;100.00
45872;BME280;32333;55.844;-3.210;2023-07-29T01:54:26;97809.76;;;14.20;100.00
45872;BME280;32333;55.844;-3.210;2023-07-29T01:56:54;97810.78;;;13.65;100.00
45872;BME280;32333;55.844;-3.210;2023-07-29T01:59:22;97809.91;;;13.52;100.00
45872;BME280;32333;55.844;-3.210;2023-07-29T02:01:49;97812.38;;;14.81;100.00
45872;BME280;32333;55.844;-3.210;2023-07-29T02:04:17;97811.59;;;14.41;100.00
45872;BME280;32333;55.844;-3.210;2023-07-29T02:06:45;97808.55;;;14.43;100.00
45872;BME280;32333;55.844;-3.210;2023-07-29T02:09:12;97808.86;;;14.70;100.00
45872;BME280;32333;55.844;-3.210;2023-07-29T02:11:39;97805.63;;;15.01;100.00
45872;BME280;32333;55.844;-3.210;2023-07-29T02:14:35;97809.60;;;15.48;100.00
45872;BME280;32333;55.844;-3.210;2023-07-29T02:17:02;97805.89;;;14.56;100.00
45872;BME280;32333;55.844;-3.210;2023-07-29T02:19:30;97808.66;;;13.17;100.00
45872;BME280;32333;55.844;-3.210;2023-07-29T02:21:58;97810.63;;;12.89;100.00
45872;BME280;32333;55.844;-3.210;2023-07-29T02:24:26;97803.89;;;13.79;100.00
45872;BME280;32333;55.844;-3.210;2023-07-29T02:26:53;97800.76;;;13.87;100.00
45872;BME280;32333;55.844;-3.210;2023-07-29T02:29:21;97798.67;;;14.56;100.00
45872;BME280;32333;55.844;-3.210;2023-07-29T02:31:49;97799.11;;;15.35;100.00
45872;BME280;32333;55.844;-3.210;2023-07-29T02:34:16;97796.64;;;15.32;100.00
45872;BME280;32333;55.844;-3.210;2023-07-29T02:36:45;97794.46;;;14.85;100.00
45872;BME280;32333;55.844;-3.210;2023-07-29T02:39:12;97792.13;;;15.32;100.00
45872;BME280;32333;55.844;-3.210;2023-07-29T02:41:40;97789.02;;;15.26;100.00
45872;BME280;32333;55.844;-3.210;2023-07-29T02:44:35;97789.40;;;14.34;100.00
45872;BME280;32333;55.844;-3.210;2023-07-29T02:47:03;97788.96;;;14.41;100.00
45872;BME280;32333;55.844;-3.210;2023-07-29T02:49:31;97784.55;;;13.81;100.00
45872;BME280;32333;55.844;-3.210;2023-07-29T02:51:59;97784.35;;;13.74;100.00
45872;BME280;32333;55.844;-3.210;2023-07-29T02:54:26;97776.14;;;13.55;100.00
45872;BME280;32333;55.844;-3.210;2023-07-29T02:56:53;97775.50;;;13.72;100.00
45872;BME280;32333;55.844;-3.210;2023-07-29T02:59:22;97776.39;;;14.20;100.00
45872;BME280;32333;55.844;-3.210;2023-07-29T03:01:49;97776.62;;;14.41;100.00
45872;BME280;32333;55.844;-3.210;2023-07-29T03:04:17;97774.90;;;14.13;100.00
45872;BME280;32333;55.844;-3.210;2023-07-29T03:06:45;97779.23;;;13.83;100.00
45872;BME280;32333;55.844;-3.210;2023-07-29T03:09:12;97779.06;;;14.03;100.00
45872;BME280;32333;55.844;-3.210;2023-07-29T03:11:39;97779.38;;;13.68;100.00
45872;BME280;32333;55.844;-3.210;2023-07-29T03:14:35;97770.84;;;14.87;100.00
45872;BME280;32333;55.844;-3.210;2023-07-29T03:17:03;97768.47;;;14.30;100.00
45872;BME280;32333;55.844;-3.210;2023-07-29T03:19:30;97766.65;;;15.41;100.00
45872;BME280;32333;55.844;-3.210;2023-07-29T03:21:59;97767.17;;;15.69;100.00
45872;BME280;32333;55.844;-3.210;2023-07-29T03:24:26;97761.41;;;15.51;100.00
45872;BME280;32333;55.844;-3.210;2023-07-29T03:26:53;97763.12;;;14.65;100.00
45872;BME280;32333;55.844;-3.210;2023-07-29T03:29:21;97760.53;;;16.28;100.00
45872;BME280;32333;55.844;-3.210;2023-07-29T03:31:48;97761.81;;;16.02;100.00
45872;BME280;32333;55.844;-3.210;2023-07-29T03:34:16;97760.95;;;15.01;100.00
45872;BME280;32333;55.844;-3.210;2023-07-29T03:36:43;97757.04;;;15.80;100.00
45872;BME280;32333;55.844;-3.210;2023-07-29T03:39:11;97758.23;;;14.66;100.00
45872;BME280;32333;55.844;-3.210;2023-07-29T03:41:38;97761.19;;;15.11;100.00
45872;BME280;32333;55.844;-3.210;2023-07-29T03:44:36;97754.64;;;15.43;100.00
45872;BME280;32333;55.844;-3.210;2023-07-29T03:47:03;97755.34;;;15.25;100.00
45872;BME280;32333;55.844;-3.210;2023-07-29T03:49:31;97757.81;;;15.87;100.00
45872;BME280;32333;55.844;-3.210;2023-07-29T03:51:59;97752.46;;;16.03;100.00
45872;BME280;32333;55.844;-3.210;2023-07-29T03:54:26;97751.64;;;16.13;100.00
45872;BME280;32333;55.844;-3.210;2023-07-29T03:56:53;97753.18;;;15.76;100.00
45872;BME280;32333;55.844;-3.210;2023-07-29T03:59:22;97749.39;;;15.96;100.00
45872;BME280;32333;55.844;-3.210;2023-07-29T04:01:49;97747.31;;;15.31;100.00
45872;BME280;32333;55.844;-3.210;2023-07-29T04:04:16;97749.80;;;15.58;100.00
45872;BME280;32333;55.844;-3.210;2023-07-29T04:06:43;97749.58;;;15.05;100.00
45872;BME280;32333;55.844;-3.210;2023-07-29T04:09:11;97746.13;;;15.27;100.00
45872;BME280;32333;55.844;-3.210;2023-07-29T04:11:38;97746.18;;;14.84;100.00
45872;BME280;32333;55.844;-3.210;2023-07-29T04:14:35;97747.02;;;14.90;100.00
45872;BME280;32333;55.844;-3.210;2023-07-29T04:17:03;97745.58;;;15.12;100.00
45872;BME280;32333;55.844;-3.210;2023-07-29T04:19:31;97747.74;;;14.67;100.00
45872;BME280;32333;55.844;-3.210;2023-07-29T04:21:59;97746.85;;;15.09;100.00
45872;BME280;32333;55.844;-3.210;2023-07-29T04:24:26;97745.41;;;14.64;100.00
45872;BME280;32333;55.844;-3.210;2023-07-29T04:26:53;97745.27;;;15.43;100.00
45872;BME280;32333;55.844;-3.210;2023-07-29T04:29:21;97742.74;;;15.54;100.00
45872;BME280;32333;55.844;-3.210;2023-07-29T04:31:49;97745.96;;;15.26;100.00
45872;BME280;32333;55.844;-3.210;2023-07-29T04:34:17;97743.86;;;15.31;100.00
45872;BME280;32333;55.844;-3.210;2023-07-29T04:36:45;97745.98;;;13.64;100.00
45872;BME280;32333;55.844;-3.210;2023-07-29T04:39:13;97745.68;;;15.28;100.00
45872;BME280;32333;55.844;-3.210;2023-07-29T04:41:40;97744.32;;;15.32;100.00
45872;BME280;32333;55.844;-3.210;2023-07-29T04:44:35;97748.10;;;14.73;100.00
45872;BME280;32333;55.844;-3.210;2023-07-29T04:47:03;97747.03;;;15.41;100.00
45872;BME280;32333;55.844;-3.210;2023-07-29T04:49:31;97750.28;;;14.48;100.00
45872;BME280;32333;55.844;-3.210;2023-07-29T04:51:59;97753.35;;;14.79;100.00
45872;BME280;32333;55.844;-3.210;2023-07-29T04:54:26;97750.06;;;15.59;100.00
45872;BME280;32333;55.844;-3.210;2023-07-29T04:56:53;97750.22;;;14.22;100.00
45872;BME280;32333;55.844;-3.210;2023-07-29T04:59:22;97748.76;;;14.23;100.00
45872;BME280;32333;55.844;-3.210;2023-07-29T05:01:49;97754.33;;;14.34;100.00
45872;BME280;32333;55.844;-3.210;2023-07-29T05:04:16;97755.85;;;14.73;100.00
45872;BME280;32333;55.844;-3.210;2023-07-29T05:06:43;97758.63;;;15.02;100.00
45872;BME280;32333;55.844;-3.210;2023-07-29T05:09:14;97765.79;;;14.98;100.00
45872;BME280;32333;55.844;-3.210;2023-07-29T05:11:42;97765.38;;;14.29;100.00
45872;BME280;32333;55.844;-3.210;2023-07-29T05:14:35;97770.99;;;13.43;100.00
45872;BME280;32333;55.844;-3.210;2023-07-29T05:17:03;97772.03;;;13.33;100.00
45872;BME280;32333;55.844;-3.210;2023-07-29T05:19:31;97775.76;;;13.08;100.00
45872;BME280;32333;55.844;-3.210;2023-07-29T05:21:59;97773.51;;;13.09;100.00
45872;BME280;32333;55.844;-3.210;2023-07-29T05:24:26;97775.54;;;13.09;100.00
45872;BME280;32333;55.844;-3.210;2023-07-29T05:26:53;97779.42;;;13.04;100.00
45872;BME280;32333;55.844;-3.210;2023-07-29T05:29:22;97780.25;;;12.52;100.00
45872;BME280;32333;55.844;-3.210;2023-07-29T05:31:49;97772.79;;;12.83;100.00
45872;BME280;32333;55.844;-3.210;2023-07-29T05:34:16;97778.97;;;12.64;100.00
45872;BME280;32333;55.844;-3.210;2023-07-29T05:36:43;97771.11;;;12.01;100.00
45872;BME280;32333;55.844;-3.210;2023-07-29T05:39:11;97776.20;;;12.94;100.00
45872;BME280;32333;55.844;-3.210;2023-07-29T05:41:39;97778.62;;;13.29;100.00
45872;BME280;32333;55.844;-3.210;2023-07-29T05:44:35;97779.97;;;13.15;100.00
45872;BME280;32333;55.844;-3.210;2023-07-29T05:47:02;97777.94;;;12.53;100.00
45872;BME280;32333;55.844;-3.210;2023-07-29T05:49:30;97778.27;;;12.09;100.00
45872;BME280;32333;55.844;-3.210;2023-07-29T05:51:58;97778.95;;;12.20;100.00
45872;BME280;32333;55.844;-3.210;2023-07-29T05:54:25;97780.54;;;12.52;100.00
45872;BME280;32333;55.844;-3.210;2023-07-29T05:56:52;97772.50;;;13.51;100.00
45872;BME280;32333;55.844;-3.210;2023-07-29T05:59:20;97774.02;;;12.55;100.00
45872;BME280;32333;55.844;-3.210;2023-07-29T06:01:47;97771.54;;;12.35;100.00
45872;BME280;32333;55.844;-3.210;2023-07-29T06:04:14;97774.58;;;12.81;100.00
45872;BME280;32333;55.844;-3.210;2023-07-29T06:06:41;97769.56;;;12.05;100.00
45872;BME280;32333;55.844;-3.210;2023-07-29T06:09:09;97765.34;;;12.53;100.00
45872;BME280;32333;55.844;-3.210;2023-07-29T06:11:37;97766.45;;;12.24;100.00
45872;BME280;32333;55.844;-3.210;2023-07-29T06:14:35;97765.76;;;13.02;100.00
45872;BME280;32333;55.844;-3.210;2023-07-29T06:17:03;97766.31;;;12.11;100.00
45872;BME280;32333;55.844;-3.210;2023-07-29T06:19:31;97766.77;;;12.25;100.00
45872;BME280;32333;55.844;-3.210;2023-07-29T06:21:59;97760.60;;;11.92;100.00
45872;BME280;32333;55.844;-3.210;2023-07-29T06:24:26;97760.28;;;12.01;100.00
45872;BME280;32333;55.844;-3.210;2023-07-29T06:26:53;97765.81;;;12.39;100.00
45872;BME280;32333;55.844;-3.210;2023-07-29T06:29:22;97761.28;;;12.38;100.00
45872;BME280;32333;55.844;-3.210;2023-07-29T06:31:49;97761.88;;;13.08;100.00
45872;BME280;32333;55.844;-3.210;2023-07-29T06:34:16;97764.84;;;11.54;100.00
45872;BME280;32333;55.844;-3.210;2023-07-29T06:36:44;97773.05;;;12.99;100.00
45872;BME280;32333;55.844;-3.210;2023-07-29T06:39:11;97773.06;;;12.88;100.00
45872;BME280;32333;55.844;-3.210;2023-07-29T06:41:39;97780.77;;;12.25;100.00
45872;BME280;32333;55.844;-3.210;2023-07-29T06:44:35;97781.77;;;12.08;100.00
45872;BME280;32333;55.844;-3.210;2023-07-29T06:47:03;97784.77;;;12.24;100.00
45872;BME280;32333;55.844;-3.210;2023-07-29T06:49:30;97783.86;;;12.96;100.00
45872;BME280;32333;55.844;-3.210;2023-07-29T06:51:58;97787.00;;;13.24;100.00
45872;BME280;32333;55.844;-3.210;2023-07-29T06:54:26;97790.66;;;13.06;100.00
45872;BME280;32333;55.844;-3.210;2023-07-29T06:56:54;97794.17;;;13.14;100.00
45872;BME280;32333;55.844;-3.210;2023-07-29T06:59:22;97789.94;;;13.17;100.00
45872;BME280;32333;55.844;-3.210;2023-07-29T07:01:49;97792.67;;;13.28;100.00
45872;BME280;32333;55.844;-3.210;2023-07-29T07:04:17;97794.78;;;12.79;100.00
45872;BME280;32333;55.844;-3.210;2023-07-29T07:06:45;97789.37;;;13.21;100.00
45872;BME280;32333;55.844;-3.210;2023-07-29T07:09:12;97790.42;;;13.28;100.00
45872;BME280;32333;55.844;-3.210;2023-07-29T07:11:39;97790.06;;;13.69;100.00
45872;BME280;32333;55.844;-3.210;2023-07-29T07:14:36;97785.01;;;13.93;100.00
45872;BME280;32333;55.844;-3.210;2023-07-29T07:17:03;97793.89;;;13.25;100.00
45872;BME280;32333;55.844;-3.210;2023-07-29T07:19:31;97787.00;;;12.58;100.00
45872;BME280;32333;55.844;-3.210;2023-07-29T07:21:58;97790.64;;;13.00;100.00
45872;BME280;32333;55.844;-3.210;2023-07-29T07:24:26;97792.16;;;13.21;100.00
45872;BME280;32333;55.844;-3.210;2023-07-29T07:26:53;97791.58;;;12.78;100.00
45872;BME280;32333;55.844;-3.210;2023-07-29T07:29:24;97791.27;;;12.72;100.00
45872;BME280;32333;55.844;-3.210;2023-07-29T07:31:52;97789.21;;;13.40;100.00
45872;BME280;32333;55.844;-3.210;2023-07-29T07:34:21;97788.72;;;13.71;100.00
45872;BME280;32333;55.844;-3.210;2023-07-29T07:36:49;97786.34;;;13.97;100.00
45872;BME280;32333;55.844;-3.210;2023-07-29T07:39:17;97789.29;;;14.15;100.00
45872;BME280;32333;55.844;-3.210;2023-07-29T07:41:45;97787.97;;;14.28;100.00
45872;BME280;32333;55.844;-3.210;2023-07-29T07:44:35;97790.52;;;14.15;100.00
45872;BME280;32333;55.844;-3.210;2023-07-29T07:47:03;97795.14;;;14.87;100.00
45872;BME280;32333;55.844;-3.210;2023-07-29T07:49:30;97784.06;;;14.50;100.00
45872;BME280;32333;55.844;-3.210;2023-07-29T07:51:58;97793.75;;;14.95;100.00
45872;BME280;32333;55.844;-3.210;2023-07-29T07:54:26;97789.33;;;15.03;100.00
45872;BME280;32333;55.844;-3.210;2023-07-29T07:56:55;97787.63;;;14.76;100.00
45872;BME280;32333;55.844;-3.210;2023-07-29T07:59:23;97789.23;;;15.03;100.00
45872;BME280;32333;55.844;-3.210;2023-07-29T08:01:50;97793.92;;;14.61;100.00
45872;BME280;32333;55.844;-3.210;2023-07-29T08:04:18;97793.82;;;14.88;100.00
45872;BME280;32333;55.844;-3.210;2023-07-29T08:06:46;97793.99;;;14.29;100.00
45872;BME280;32333;55.844;-3.210;2023-07-29T08:09:13;97790.87;;;14.70;100.00
45872;BME280;32333;55.844;-3.210;2023-07-29T08:11:40;97793.13;;;15.03;100.00
45872;BME280;32333;55.844;-3.210;2023-07-29T08:14:36;97795.87;;;14.76;100.00
45872;BME280;32333;55.844;-3.210;2023-07-29T08:17:03;97796.35;;;14.72;100.00
45872;BME280;32333;55.844;-3.210;2023-07-29T08:19:32;97797.25;;;15.23;100.00
45872;BME280;32333;55.844;-3.210;2023-07-29T08:22:02;97789.24;;;15.04;100.00
45872;BME280;32333;55.844;-3.210;2023-07-29T08:24:31;97792.76;;;14.80;100.00
45872;BME280;32333;55.844;-3.210;2023-07-29T08:26:59;97789.66;;;14.76;100.00
45872;BME280;32333;55.844;-3.210;2023-07-29T08:29:26;97785.16;;;13.55;100.00
45872;BME280;32333;55.844;-3.210;2023-07-29T08:31:53;97795.49;;;14.49;100.00
45872;BME280;32333;55.844;-3.210;2023-07-29T08:34:20;97796.05;;;15.02;100.00
45872;BME280;32333;55.844;-3.210;2023-07-29T08:36:48;97796.22;;;14.95;100.00
45872;BME280;32333;55.844;-3.210;2023-07-29T08:39:15;97793.64;;;15.03;100.00
45872;BME280;32333;55.844;-3.210;2023-07-29T08:41:49;97793.28;;;14.81;100.00
45872;BME280;32333;55.844;-3.210;2023-07-29T08:44:44;97790.28;;;15.99;100.00
45872;BME280;32333;55.844;-3.210;2023-07-29T08:47:12;97785.97;;;15.90;100.00
45872;BME280;32333;55.844;-3.210;2023-07-29T08:49:42;97786.33;;;16.36;100.00
45872;BME280;32333;55.844;-3.210;2023-07-29T08:52:11;97784.38;;;16.15;100.00
45872;BME280;32333;55.844;-3.210;2023-07-29T08:54:40;97790.94;;;16.06;100.00
45872;BME280;32333;55.844;-3.210;2023-07-29T08:57:08;97786.80;;;15.44;100.00
45872;BME280;32333;55.844;-3.210;2023-07-29T08:59:39;97788.69;;;15.31;100.00
45872;BME280;32333;55.844;-3.210;2023-07-29T09:02:07;97786.62;;;15.61;100.00
45872;BME280;32333;55.844;-3.210;2023-07-29T09:04:35;97783.61;;;14.64;100.00
45872;BME280;32333;55.844;-3.210;2023-07-29T09:07:02;97786.21;;;15.47;100.00
45872;BME280;32333;55.844;-3.210;2023-07-29T09:09:30;97780.45;;;15.63;100.00
45872;BME280;32333;55.844;-3.210;2023-07-29T09:11:58;97782.75;;;16.03;100.00
45872;BME280;32333;55.844;-3.210;2023-07-29T09:14:35;97779.37;;;15.71;100.00
45872;BME280;32333;55.844;-3.210;2023-07-29T09:17:06;97782.36;;;15.81;100.00
45872;BME280;32333;55.844;-3.210;2023-07-29T09:19:34;97783.39;;;16.10;100.00
45872;BME280;32333;55.844;-3.210;2023-07-29T09:22:02;97783.18;;;16.56;100.00
45872;BME280;32333;55.844;-3.210;2023-07-29T09:24:30;97775.75;;;15.97;100.00
45872;BME280;32333;55.844;-3.210;2023-07-29T09:28:20;97777.81;;;17.00;100.00
45872;BME280;32333;55.844;-3.210;2023-07-29T09:30:48;97762.95;;;16.60;100.00
45872;BME280;32333;55.844;-3.210;2023-07-29T09:33:15;97769.48;;;16.80;100.00
45872;BME280;32333;55.844;-3.210;2023-07-29T09:35:45;97762.77;;;17.57;100.00
45872;BME280;32333;55.844;-3.210;2023-07-29T09:38:15;97767.52;;;17.18;100.00
45872;BME280;32333;55.844;-3.210;2023-07-29T09:40:42;97772.97;;;17.72;100.00
45872;BME280;32333;55.844;-3.210;2023-07-29T09:44:36;97764.13;;;18.00;100.00
45872;BME280;32333;55.844;-3.210;2023-07-29T09:47:04;97766.31;;;17.65;100.00
45872;BME280;32333;55.844;-3.210;2023-07-29T09:49:35;97759.88;;;16.54;100.00
45872;BME280;32333;55.844;-3.210;2023-07-29T09:52:03;97752.99;;;18.48;100.00
45872;BME280;32333;55.844;-3.210;2023-07-29T09:54:31;97758.85;;;18.58;100.00
45872;BME280;32333;55.844;-3.210;2023-07-29T09:56:59;97755.02;;;18.93;100.00
45872;BME280;32333;55.844;-3.210;2023-07-29T09:59:27;97755.46;;;17.77;100.00
45872;BME280;32333;55.844;-3.210;2023-07-29T10:01:55;97759.50;;;18.06;100.00
45872;BME280;32333;55.844;-3.210;2023-07-29T10:04:23;97756.45;;;18.61;100.00
45872;BME280;32333;55.844;-3.210;2023-07-29T10:06:52;97750.86;;;18.12;99.76
45872;BME280;32333;55.844;-3.210;2023-07-29T10:09:20;97745.38;;;18.00;97.20
45872;BME280;32333;55.844;-3.210;2023-07-29T10:11:48;97743.41;;;17.67;100.00
45872;BME280;32333;55.844;-3.210;2023-07-29T10:14:35;97742.30;;;18.63;100.00
45872;BME280;32333;55.844;-3.210;2023-07-29T10:17:05;97747.21;;;18.63;94.66
45872;BME280;32333;55.844;-3.210;2023-07-29T10:19:34;97749.72;;;18.20;98.78
45872;BME280;32333;55.844;-3.210;2023-07-29T10:22:17;97756.09;;;17.04;99.41
45872;BME280;32333;55.844;-3.210;2023-07-29T10:24:49;97745.56;;;18.12;98.84
45872;BME280;32333;55.844;-3.210;2023-07-29T10:27:19;97749.86;;;18.03;99.94
45872;BME280;32333;55.844;-3.210;2023-07-29T10:29:49;97746.11;;;18.64;98.24
45872;BME280;32333;55.844;-3.210;2023-07-29T10:32:19;97756.94;;;18.92;96.16
45872;BME280;32333;55.844;-3.210;2023-07-29T10:34:49;97771.21;;;17.10;100.00
45872;BME280;32333;55.844;-3.210;2023-07-29T10:37:18;97769.93;;;16.86;100.00
45872;BME280;32333;55.844;-3.210;2023-07-29T10:39:53;97778.67;;;17.60;100.00
45872;BME280;32333;55.844;-3.210;2023-07-29T10:44:52;97770.73;;;17.86;100.00
45872;BME280;32333;55.844;-3.210;2023-07-29T10:47:22;97766.08;;;17.72;100.00
45872;BME280;32333;55.844;-3.210;2023-07-29T10:49:52;97767.50;;;18.79;100.00
45872;BME280;32333;55.844;-3.210;2023-07-29T10:52:54;97759.93;;;19.80;96.23
45872;BME280;32333;55.844;-3.210;2023-07-29T10:55:26;97765.51;;;17.49;100.00
45872;BME280;32333;55.844;-3.210;2023-07-29T10:58:29;97756.82;;;18.67;99.44
45872;BME280;32333;55.844;-3.210;2023-07-29T11:00:57;97754.55;;;18.66;98.53
45872;BME280;32333;55.844;-3.210;2023-07-29T11:03:24;97752.33;;;18.41;99.77
45872;BME280;32333;55.844;-3.210;2023-07-29T11:05:53;97749.00;;;18.83;96.84
45872;BME280;32333;55.844;-3.210;2023-07-29T11:08:23;97762.16;;;17.36;100.00
45872;BME280;32333;55.844;-3.210;2023-07-29T11:11:03;97756.34;;;17.73;100.00
45872;BME280;32333;55.844;-3.210;2023-07-29T11:14:36;97753.57;;;17.55;100.00
45872;BME280;32333;55.844;-3.210;2023-07-29T11:17:04;97758.10;;;17.15;100.00
45872;BME280;32333;55.844;-3.210;2023-07-29T11:19:33;97755.36;;;16.85;100.00
45872;BME280;32333;55.844;-3.210;2023-07-29T11:22:02;97750.73;;;16.40;100.00
45872;BME280;32333;55.844;-3.210;2023-07-29T11:24:29;97757.59;;;16.47;100.00
45872;BME280;32333;55.844;-3.210;2023-07-29T11:26:56;97765.52;;;16.52;100.00
45872;BME280;32333;55.844;-3.210;2023-07-29T11:29:24;97760.56;;;16.01;100.00
45872;BME280;32333;55.844;-3.210;2023-07-29T11:31:52;97767.03;;;15.69;100.00
45872;BME280;32333;55.844;-3.210;2023-07-29T11:34:31;97771.87;;;16.82;100.00
45872;BME280;32333;55.844;-3.210;2023-07-29T11:36:58;97772.86;;;15.97;100.00
45872;BME280;32333;55.844;-3.210;2023-07-29T11:39:25;97761.67;;;16.09;100.00
45872;BME280;32333;55.844;-3.210;2023-07-29T11:41:52;97767.98;;;16.19;100.00
45872;BME280;32333;55.844;-3.210;2023-07-29T11:44:36;97777.56;;;15.26;100.00
45872;BME280;32333;55.844;-3.210;2023-07-29T11:47:06;97772.49;;;16.30;100.00
45872;BME280;32333;55.844;-3.210;2023-07-29T11:49:35;97769.49;;;16.46;100.00
45872;BME280;32333;55.844;-3.210;2023-07-29T11:52:03;97768.08;;;16.31;100.00
45872;BME280;32333;55.844;-3.210;2023-07-29T11:54:30;97780.46;;;17.20;100.00
45872;BME280;32333;55.844;-3.210;2023-07-29T11:56:57;97770.29;;;16.56;100.00
45872;BME280;32333;55.844;-3.210;2023-07-29T11:59:24;97764.68;;;16.93;100.00
45872;BME280;32333;55.844;-3.210;2023-07-29T12:01:52;97765.48;;;17.06;100.00
45872;BME280;32333;55.844;-3.210;2023-07-29T12:04:21;97760.14;;;17.11;100.00
45872;BME280;32333;55.844;-3.210;2023-07-29T12:06:48;97760.77;;;17.69;100.00
45872;BME280;32333;55.844;-3.210;2023-07-29T12:09:16;97754.93;;;17.19;100.00
45872;BME280;32333;55.844;-3.210;2023-07-29T12:11:44;97748.93;;;18.13;100.00
45872;BME280;32333;55.844;-3.210;2023-07-29T12:14:35;97756.72;;;17.29;100.00
45872;BME280;32333;55.844;-3.210;2023-07-29T12:17:05;97768.05;;;17.44;100.00
45872;BME280;32333;55.844;-3.210;2023-07-29T12:19:34;97769.05;;;17.43;100.00
45872;BME280;32333;55.844;-3.210;2023-07-29T12:22:04;97761.66;;;17.12;100.00
45872;BME280;32333;55.844;-3.210;2023-07-29T12:24:35;97756.58;;;16.15;100.00
45872;BME280;32333;55.844;-3.210;2023-07-29T12:27:03;97762.10;;;17.58;100.00
45872;BME280;32333;55.844;-3.210;2023-07-29T12:29:31;97759.44;;;17.00;100.00
45872;BME280;32333;55.844;-3.210;2023-07-29T12:31:59;97763.34;;;16.66;100.00
45872;BME280;32333;55.844;-3.210;2023-07-29T12:34:29;97750.55;;;16.72;100.00
45872;BME280;32333;55.844;-3.210;2023-07-29T12:36:58;97757.42;;;16.82;100.00
45872;BME280;32333;55.844;-3.210;2023-07-29T12:39:28;97758.34;;;16.74;100.00
45872;BME280;32333;55.844;-3.210;2023-07-29T12:41:58;97750.40;;;16.84;100.00
45872;BME280;32333;55.844;-3.210;2023-07-29T12:44:36;97766.78;;;17.21;100.00
45872;BME280;32333;55.844;-3.210;2023-07-29T12:47:06;97767.72;;;16.66;100.00
45872;BME280;32333;55.844;-3.210;2023-07-29T12:49:34;97778.72;;;16.66;100.00
45872;BME280;32333;55.844;-3.210;2023-07-29T12:52:01;97775.00;;;16.03;100.00
45872;BME280;32333;55.844;-3.210;2023-07-29T12:54:29;97767.76;;;16.77;100.00
45872;BME280;32333;55.844;-3.210;2023-07-29T12:56:57;97767.00;;;16.62;100.00
45872;BME280;32333;55.844;-3.210;2023-07-29T12:59:25;97777.48;;;17.09;100.00
45872;BME280;32333;55.844;-3.210;2023-07-29T13:01:52;97776.45;;;17.78;98.38
45872;BME280;32333;55.844;-3.210;2023-07-29T13:04:20;97771.57;;;17.62;100.00
45872;BME280;32333;55.844;-3.210;2023-07-29T13:06:47;97773.53;;;17.76;100.00